createdAt,value
2018-09-11T00:04:23.745Z,18.30
2018-09-11T00:09:26.784Z,18.20
2018-09-11T00:14:29.864Z,18.20
2018-09-11T00:19:32.888Z,18.10
2018-09-11T00:24:35.945Z,18.10
2018-09-11T00:29:38.997Z,18.00
2018-09-11T00:34:42.130Z,18.00
2018-09-11T00:39:45.176Z,18.00
2018-09-11T00:44:48.204Z,18.00
2018-09-11T00:49:51.292Z,18.00
2018-09-11T00:54:54.320Z,18.10
2018-09-11T00:59:57.364Z,18.10
2018-09-11T01:05:00.392Z,18.00
2018-09-11T01:10:05.323Z,18.00
2018-09-11T01:15:08.767Z,17.90
2018-09-11T01:20:11.851Z,17.90
2018-09-11T01:25:14.960Z,17.90
2018-09-11T01:30:21.329Z,17.90
2018-09-11T01:35:24.399Z,17.90
2018-09-11T01:40:27.480Z,17.90
2018-09-11T01:45:30.535Z,17.90
2018-09-11T01:50:33.593Z,17.80
2018-09-11T01:55:36.719Z,17.80
2018-09-11T02:00:39.801Z,17.80
2018-09-11T02:05:42.819Z,17.80
2018-09-11T02:10:45.847Z,17.80
2018-09-11T02:15:48.921Z,17.70
2018-09-11T02:20:52.120Z,17.70
2018-09-11T02:25:55.183Z,17.70
2018-09-11T02:30:58.219Z,17.70
2018-09-11T02:36:01.440Z,17.60
2018-09-11T02:41:04.512Z,17.60
2018-09-11T02:46:07.539Z,17.50
2018-09-11T02:51:10.621Z,17.40
2018-09-11T02:56:13.706Z,17.40
2018-09-11T03:01:16.760Z,17.30
2018-09-11T03:06:19.839Z,17.30
2018-09-11T03:11:22.905Z,17.30
2018-09-11T03:16:25.913Z,17.30
2018-09-11T03:21:29.021Z,17.30
2018-09-11T03:26:32.043Z,17.30
2018-09-11T03:31:35.136Z,17.30
2018-09-11T03:36:38.167Z,17.30
2018-09-11T03:41:41.253Z,17.20
2018-09-11T03:46:44.265Z,17.20
2018-09-11T03:51:47.355Z,17.20
2018-09-11T03:56:50.631Z,17.20
2018-09-11T04:01:53.755Z,17.20
2018-09-11T04:06:56.820Z,17.20
2018-09-11T04:11:59.860Z,17.20
2018-09-11T04:17:02.900Z,17.20
2018-09-11T04:22:05.982Z,17.20
2018-09-11T04:27:09.008Z,17.20
2018-09-11T04:32:12.029Z,17.20
2018-09-11T04:37:15.085Z,17.20
2018-09-11T04:42:18.204Z,17.20
2018-09-11T04:47:21.362Z,17.20
2018-09-11T04:52:24.380Z,17.10
2018-09-11T04:57:27.427Z,17.10
2018-09-11T05:02:30.456Z,17.20
2018-09-11T05:07:33.515Z,17.10
2018-09-11T05:12:36.546Z,17.10
2018-09-11T05:17:39.568Z,17.20
2018-09-11T05:22:42.834Z,17.20
2018-09-11T05:27:45.865Z,17.10
2018-09-11T05:32:48.929Z,17.20
2018-09-11T05:37:52.032Z,17.30
2018-09-11T05:42:55.098Z,17.30
2018-09-11T05:47:58.136Z,17.40
2018-09-11T05:53:01.176Z,17.40
2018-09-11T05:58:04.221Z,17.50
2018-09-11T06:03:07.329Z,17.60
2018-09-11T06:08:10.396Z,17.60
2018-09-11T06:13:13.763Z,17.60
2018-09-11T06:18:16.914Z,17.60
2018-09-11T06:23:19.968Z,17.70
2018-09-11T06:28:23.024Z,17.80
2018-09-11T06:33:26.068Z,17.90
2018-09-11T06:38:29.108Z,18.00
2018-09-11T06:43:32.230Z,18.10
2018-09-11T06:48:35.272Z,18.40
2018-09-11T06:53:38.280Z,18.70
2018-09-11T06:58:41.323Z,18.70
2018-09-11T07:03:44.376Z,18.90
2018-09-11T07:08:47.390Z,19.10
2018-09-11T07:13:50.403Z,19.30
2018-09-11T07:18:53.421Z,19.50
2018-09-11T07:23:56.476Z,19.70
2018-09-11T07:28:59.508Z,20.00
2018-09-11T07:34:02.537Z,20.30
2018-09-11T07:39:07.069Z,20.60
2018-09-11T07:44:10.072Z,21.00
2018-09-11T07:49:13.172Z,21.80
2018-09-11T07:54:16.217Z,23.20
2018-09-11T07:59:19.236Z,24.50
2018-09-11T08:04:22.259Z,25.50
2018-09-11T08:09:25.320Z,25.30
2018-09-11T08:14:28.328Z,25.40
2018-09-11T08:19:31.373Z,25.90
2018-09-11T08:24:34.416Z,25.90
2018-09-11T08:29:37.484Z,25.80
2018-09-11T08:34:40.537Z,26.00
2018-09-11T08:39:43.927Z,25.80
2018-09-11T08:44:46.963Z,25.80
2018-09-11T08:49:49.999Z,25.30
2018-09-11T08:54:53.043Z,25.00
2018-09-11T08:59:56.570Z,24.70
2018-09-11T09:04:59.575Z,24.70
2018-09-11T09:10:02.814Z,24.60
2018-09-11T09:15:05.783Z,24.30
2018-09-11T09:20:08.808Z,24.10
2018-09-11T09:25:11.840Z,23.70
2018-09-11T09:30:14.880Z,23.70
2018-09-11T09:35:17.984Z,23.70
2018-09-11T09:40:21.148Z,23.70
2018-09-11T09:45:24.240Z,24.10
2018-09-11T09:50:27.377Z,24.30
2018-09-11T09:55:30.462Z,24.20
2018-09-11T10:00:38.923Z,24.10
2018-09-11T10:05:41.958Z,24.10
2018-09-11T10:10:45.053Z,24.30
2018-09-11T10:15:48.102Z,24.30
2018-09-11T10:20:51.129Z,24.10
2018-09-11T10:25:54.174Z,24.10
2018-09-11T10:30:57.185Z,24.20
2018-09-11T10:36:00.406Z,24.50
2018-09-11T10:41:03.467Z,24.30
2018-09-11T10:46:06.481Z,24.30
2018-09-11T10:51:09.514Z,24.70
2018-09-11T10:56:12.579Z,24.80
2018-09-11T11:01:15.702Z,24.70
2018-09-11T11:06:18.759Z,24.80
2018-09-11T11:11:21.811Z,24.90
2018-09-11T11:16:24.868Z,25.00
2018-09-11T11:21:27.967Z,25.20
2018-09-11T11:26:30.989Z,25.50
2018-09-11T11:31:34.079Z,25.40
2018-09-11T11:36:37.197Z,25.60
2018-09-11T11:41:40.211Z,25.40
2018-09-11T11:46:43.229Z,25.60
2018-09-11T11:51:46.235Z,25.70
2018-09-11T11:56:49.261Z,25.60
2018-09-11T12:01:52.368Z,25.40
2018-09-11T12:06:55.514Z,25.70
2018-09-11T12:11:58.612Z,25.80
2018-09-11T12:17:01.716Z,26.00
2018-09-11T12:22:04.844Z,25.90
2018-09-11T12:27:07.924Z,25.80
2018-09-11T12:32:10.961Z,25.60
2018-09-11T12:37:14.136Z,25.60
2018-09-11T12:42:17.286Z,25.70
2018-09-11T12:47:20.608Z,25.60
2018-09-11T12:52:23.506Z,25.60
2018-09-11T12:57:26.881Z,25.60
2018-09-11T13:02:29.891Z,25.70
2018-09-11T13:07:32.897Z,25.80
2018-09-11T13:12:35.914Z,25.90
2018-09-11T13:17:40.078Z,25.80
2018-09-11T13:22:43.936Z,25.80
2018-09-11T13:27:47.001Z,25.70
2018-09-11T13:32:50.019Z,25.70
2018-09-11T13:37:53.032Z,25.80
2018-09-11T13:42:56.066Z,26.00
2018-09-11T13:47:59.250Z,26.00
2018-09-11T13:53:02.174Z,25.90
2018-09-11T13:58:05.409Z,25.90
2018-09-11T14:03:08.465Z,26.00
2018-09-11T14:08:11.494Z,26.10
2018-09-11T14:13:14.524Z,26.10
2018-09-11T14:18:17.554Z,26.20
2018-09-11T14:23:20.647Z,26.10
2018-09-11T14:28:23.773Z,26.00
2018-09-11T14:33:26.781Z,26.10
2018-09-11T14:38:31.915Z,26.10
2018-09-11T14:43:35.139Z,26.00
2018-09-11T14:48:38.171Z,26.00
2018-09-11T14:53:41.534Z,25.80
2018-09-11T14:58:44.543Z,25.70
2018-09-11T15:03:47.703Z,25.80
2018-09-11T15:08:50.748Z,25.70
2018-09-11T15:13:53.922Z,25.70
2018-09-11T15:18:56.953Z,25.70
2018-09-11T15:24:00.130Z,25.70
2018-09-11T15:29:03.172Z,25.70
2018-09-11T15:34:06.243Z,25.70
2018-09-11T15:39:09.299Z,25.70
2018-09-11T15:44:12.385Z,25.70
2018-09-11T15:49:15.546Z,25.70
2018-09-11T15:54:18.717Z,25.70
2018-09-11T15:59:21.708Z,25.70
2018-09-11T16:04:24.825Z,25.70
2018-09-11T16:09:27.830Z,25.90
2018-09-11T16:14:30.861Z,25.80
2018-09-11T16:19:33.927Z,25.70
2018-09-11T16:24:37.035Z,25.50
2018-09-11T16:29:40.122Z,25.40
2018-09-11T16:34:43.091Z,25.30
2018-09-11T16:39:46.132Z,25.30
2018-09-11T16:44:49.245Z,25.20
2018-09-11T16:49:52.360Z,25.10
2018-09-11T16:54:55.478Z,25.10
2018-09-11T16:59:58.582Z,24.90
2018-09-11T17:05:01.673Z,24.80
2018-09-11T17:10:04.721Z,24.50
2018-09-11T17:15:07.732Z,24.30
2018-09-11T17:20:10.882Z,24.10
2018-09-11T17:25:13.878Z,23.90
2018-09-11T17:30:16.973Z,23.70
2018-09-11T17:35:20.075Z,23.50
2018-09-11T17:40:23.140Z,23.40
2018-09-11T17:45:26.200Z,23.10
2018-09-11T17:50:30.426Z,22.90
2018-09-11T17:55:33.583Z,22.90
2018-09-11T18:00:37.136Z,22.80
2018-09-11T18:05:40.220Z,22.80
2018-09-11T18:10:43.703Z,22.80
2018-09-11T18:15:46.801Z,22.80
2018-09-11T18:20:49.811Z,22.70
2018-09-11T18:25:55.254Z,22.60
2018-09-11T18:30:58.276Z,22.50
2018-09-11T18:36:01.593Z,22.40
2018-09-11T18:41:04.686Z,22.30
2018-09-11T18:46:07.777Z,22.20
2018-09-11T18:51:10.825Z,22.10
2018-09-11T18:56:13.932Z,22.10
2018-09-11T19:01:16.932Z,22.00
2018-09-11T19:06:19.977Z,22.00
2018-09-11T19:11:23.066Z,21.90
2018-09-11T19:16:26.176Z,21.80
2018-09-11T19:21:29.663Z,21.60
2018-09-11T19:26:32.696Z,21.50
2018-09-11T19:31:35.728Z,21.40
2018-09-11T19:36:38.751Z,21.30
2018-09-11T19:41:41.796Z,21.20
2018-09-11T19:46:44.832Z,21.20
2018-09-11T19:51:47.985Z,21.20
2018-09-11T19:56:51.013Z,21.20
2018-09-11T20:01:54.123Z,21.20
2018-09-11T20:06:57.132Z,21.30
2018-09-11T20:12:00.144Z,21.30
2018-09-11T20:17:03.509Z,21.30
2018-09-11T20:22:08.197Z,21.20
2018-09-11T20:27:11.584Z,21.20
2018-09-11T20:32:14.592Z,21.10
2018-09-11T20:37:17.695Z,21.00
2018-09-11T20:42:20.767Z,20.90
2018-09-11T20:47:23.855Z,20.80
2018-09-11T20:52:26.904Z,20.70
2018-09-11T20:57:29.905Z,20.70
2018-09-11T21:02:32.941Z,20.60
2018-09-11T21:07:36.012Z,20.60
2018-09-11T21:12:39.108Z,20.60
2018-09-11T21:17:42.145Z,20.60
2018-09-11T21:22:45.179Z,20.50
2018-09-11T21:27:48.217Z,20.50
2018-09-11T21:32:51.228Z,20.40
2018-09-11T21:37:54.322Z,20.40
2018-09-11T21:42:57.364Z,20.20
2018-09-11T21:48:00.362Z,20.10
2018-09-11T21:53:03.386Z,20.00
2018-09-11T21:58:06.398Z,19.90
2018-09-11T22:03:10.435Z,19.80
2018-09-11T22:08:13.431Z,19.80
2018-09-11T22:13:16.670Z,19.70
2018-09-11T22:18:19.678Z,19.60
2018-09-11T22:23:22.755Z,19.60
2018-09-11T22:28:25.820Z,19.40
2018-09-11T22:33:28.840Z,19.30
2018-09-11T22:38:31.832Z,19.30
2018-09-11T22:43:34.848Z,19.10
2018-09-11T22:48:38.672Z,19.00
2018-09-11T22:53:41.744Z,19.00
2018-09-11T22:58:44.752Z,18.90
2018-09-11T23:03:47.792Z,18.80
2018-09-11T23:08:50.790Z,18.70
2018-09-11T23:13:53.863Z,18.70
2018-09-11T23:18:56.915Z,18.70
2018-09-11T23:23:59.928Z,18.70
2018-09-11T23:29:03.010Z,18.70
2018-09-11T23:34:06.328Z,18.60
2018-09-11T23:39:09.569Z,18.60
2018-09-11T23:44:12.569Z,18.60
2018-09-11T23:49:15.579Z,18.50
2018-09-11T23:54:18.648Z,18.50
2018-09-11T23:59:21.751Z,18.40
